createdAt,value
2019-04-03T00:00:31.215Z,10.42
2019-04-03T00:03:06.190Z,10.37
2019-04-03T00:05:41.321Z,10.37
2019-04-03T00:08:16.380Z,10.54
2019-04-03T00:10:51.501Z,10.53
2019-04-03T00:13:26.798Z,10.60
2019-04-03T00:16:01.990Z,10.49
2019-04-03T00:18:37.235Z,10.40
2019-04-03T00:21:12.399Z,10.32
2019-04-03T00:23:47.466Z,10.13
2019-04-03T00:26:22.795Z,10.06
2019-04-03T00:28:57.799Z,9.99
2019-04-03T00:31:35.696Z,9.87
2019-04-03T00:34:10.756Z,9.89
2019-04-03T00:36:45.912Z,9.89
2019-04-03T00:39:20.938Z,9.86
2019-04-03T00:41:55.948Z,9.80
2019-04-03T00:44:30.997Z,9.68
2019-04-03T00:47:06.096Z,9.68
2019-04-03T00:49:41.205Z,9.70
2019-04-03T00:52:16.183Z,9.68
2019-04-03T00:54:51.242Z,9.65
2019-04-03T00:57:26.907Z,9.63
2019-04-03T01:00:02.102Z,9.55
2019-04-03T01:02:37.277Z,9.52
2019-04-03T01:05:12.485Z,9.50
2019-04-03T01:07:49.191Z,9.60
2019-04-03T01:10:24.344Z,9.66
2019-04-03T01:13:01.363Z,9.67
2019-04-03T01:15:36.114Z,9.70
2019-04-03T01:18:11.235Z,9.65
2019-04-03T01:20:46.451Z,9.65
2019-04-03T01:23:22.212Z,9.55
2019-04-03T01:25:57.269Z,9.54
2019-04-03T01:28:32.551Z,9.57
2019-04-03T01:31:07.569Z,9.52
2019-04-03T01:33:42.685Z,9.43
2019-04-03T01:36:18.646Z,9.44
2019-04-03T01:38:54.200Z,9.46
2019-04-03T01:41:29.253Z,9.68
2019-04-03T01:44:04.288Z,9.77
2019-04-03T01:46:41.841Z,9.92
2019-04-03T01:49:16.867Z,9.98
2019-04-03T01:51:52.059Z,9.99
2019-04-03T01:54:27.103Z,10.07
2019-04-03T01:57:06.203Z,10.11
2019-04-03T01:59:40.055Z,10.09
2019-04-03T02:02:15.088Z,10.13
2019-04-03T02:04:50.131Z,10.16
2019-04-03T02:07:25.169Z,10.18
2019-04-03T02:10:00.195Z,10.17
2019-04-03T02:12:35.541Z,10.40
2019-04-03T02:15:10.740Z,10.36
2019-04-03T02:17:46.026Z,10.33
2019-04-03T02:20:21.404Z,10.38
2019-04-03T02:22:59.308Z,10.34
2019-04-03T02:25:34.206Z,10.37
2019-04-03T02:28:09.216Z,10.28
2019-04-03T02:30:47.195Z,10.28
2019-04-03T02:33:22.586Z,10.15
2019-04-03T02:35:57.681Z,10.20
2019-04-03T02:38:33.211Z,10.32
2019-04-03T02:41:08.278Z,10.31
2019-04-03T02:43:46.570Z,10.34
2019-04-03T02:46:20.620Z,10.40
2019-04-03T02:48:55.747Z,10.46
2019-04-03T02:51:31.311Z,10.38
2019-04-03T02:54:29.783Z,10.39
2019-04-03T02:57:05.042Z,10.44
2019-04-03T02:59:40.109Z,10.38
2019-04-03T03:02:15.102Z,10.32
2019-04-03T03:04:53.731Z,10.33
2019-04-03T03:07:26.882Z,10.25
2019-04-03T03:10:03.917Z,10.20
2019-04-03T03:12:41.048Z,10.15
2019-04-03T03:15:17.605Z,10.04
2019-04-03T03:17:55.096Z,10.02
2019-04-03T03:20:32.655Z,9.95
2019-04-03T03:23:07.821Z,9.97
2019-04-03T03:25:43.795Z,10.03
2019-04-03T03:28:19.392Z,10.13
2019-04-03T03:31:02.709Z,10.10
2019-04-03T03:33:38.526Z,10.10
2019-04-03T03:36:15.293Z,10.21
2019-04-03T03:38:48.864Z,10.17
2019-04-03T03:41:24.836Z,10.17
2019-04-03T03:44:00.000Z,10.11
2019-04-03T03:46:35.480Z,10.20
2019-04-03T03:49:10.766Z,10.17
2019-04-03T03:51:46.866Z,10.13
2019-04-03T03:54:24.170Z,10.13
2019-04-03T03:57:04.362Z,10.14
2019-04-03T03:59:40.761Z,10.18
2019-04-03T04:02:17.164Z,10.19
2019-04-03T04:04:52.548Z,10.10
2019-04-03T04:07:28.716Z,10.18
2019-04-03T04:10:04.480Z,10.22
2019-04-03T04:12:41.778Z,10.23
2019-04-03T04:15:19.025Z,10.14
2019-04-03T04:17:55.280Z,10.20
2019-04-03T04:20:31.399Z,10.18
2019-04-03T04:23:07.375Z,10.18
2019-04-03T04:25:44.190Z,10.22
2019-04-03T04:28:20.752Z,10.32
2019-04-03T04:30:56.292Z,10.30
2019-04-03T04:33:31.647Z,10.36
2019-04-03T04:36:07.011Z,10.32
2019-04-03T04:38:42.204Z,10.30
2019-04-03T04:41:17.227Z,10.32
2019-04-03T04:43:52.436Z,10.33
2019-04-03T04:46:27.430Z,10.36
2019-04-03T04:49:02.758Z,10.32
2019-04-03T04:51:37.964Z,10.23
2019-04-03T04:54:13.192Z,10.30
2019-04-03T04:56:48.219Z,9.97
2019-04-03T04:59:23.731Z,9.84
2019-04-03T05:01:58.718Z,9.88
2019-04-03T05:04:34.100Z,9.77
2019-04-03T05:07:09.962Z,9.77
2019-04-03T05:09:44.961Z,9.71
2019-04-03T05:12:19.970Z,9.66
2019-04-03T05:15:09.383Z,9.79
2019-04-03T05:17:52.179Z,9.55
2019-04-03T05:20:27.271Z,9.62
2019-04-03T05:25:50.446Z,9.75
2019-04-03T05:28:25.744Z,9.90
2019-04-03T05:31:01.240Z,9.81
2019-04-03T05:33:36.592Z,9.96
2019-04-03T05:36:11.797Z,9.94
2019-04-03T05:38:46.775Z,9.96
2019-04-03T05:41:21.966Z,10.11
2019-04-03T05:43:56.982Z,9.98
2019-04-03T05:46:32.769Z,10.09
2019-04-03T05:49:10.719Z,9.85
2019-04-03T05:51:44.755Z,9.99
2019-04-03T05:54:20.030Z,9.87
2019-04-03T05:56:55.323Z,9.90
2019-04-03T05:59:32.744Z,10.18
2019-04-03T06:02:14.560Z,10.10
2019-04-03T06:04:44.032Z,10.17
2019-04-03T06:07:19.190Z,10.21
2019-04-03T06:09:58.279Z,10.12
2019-04-03T06:12:31.326Z,10.06
2019-04-03T06:15:09.827Z,10.04
2019-04-03T06:17:50.248Z,9.95
2019-04-03T06:20:24.862Z,10.07
2019-04-03T06:23:00.132Z,10.14
2019-04-03T06:25:35.919Z,10.14
2019-04-03T06:28:13.136Z,10.29
2019-04-03T06:30:47.866Z,10.33
2019-04-03T06:33:24.397Z,10.22
2019-04-03T06:35:59.594Z,10.27
2019-04-03T06:38:34.990Z,10.27
2019-04-03T06:41:09.978Z,10.32
2019-04-03T06:43:45.131Z,10.33
2019-04-03T06:46:20.262Z,10.21
2019-04-03T06:48:55.892Z,10.21
2019-04-03T06:51:31.134Z,10.30
2019-04-03T06:54:08.060Z,10.37
2019-04-03T06:56:43.184Z,10.34
2019-04-03T06:59:18.378Z,10.44
2019-04-03T07:01:53.699Z,10.48
2019-04-03T07:04:29.043Z,10.50
2019-04-03T07:07:04.765Z,10.57
2019-04-03T07:09:41.146Z,10.64
2019-04-03T07:12:16.439Z,10.63
2019-04-03T07:14:51.932Z,10.72
2019-04-03T07:17:27.220Z,10.80
2019-04-03T07:20:12.559Z,10.84
2019-04-03T07:22:39.949Z,11.24
2019-04-03T07:25:16.003Z,11.44
2019-04-03T07:27:51.101Z,11.47
2019-04-03T07:30:26.105Z,11.39
2019-04-03T07:33:01.334Z,11.37
2019-04-03T07:35:39.226Z,11.45
2019-04-03T07:38:13.427Z,11.37
2019-04-03T07:40:51.064Z,11.14
2019-04-03T07:43:26.921Z,11.15
2019-04-03T07:46:03.447Z,11.22
2019-04-03T07:48:39.270Z,11.27
2019-04-03T07:51:14.610Z,11.34
2019-04-03T07:53:51.203Z,11.40
2019-04-03T07:56:26.977Z,11.17
2019-04-03T07:59:03.895Z,11.34
2019-04-03T08:01:41.308Z,11.35
2019-04-03T08:04:16.824Z,11.42
2019-04-03T08:06:52.332Z,11.39
2019-04-03T08:09:27.465Z,11.37
2019-04-03T08:12:04.194Z,11.24
2019-04-03T08:14:41.125Z,11.10
2019-04-03T08:17:16.701Z,11.05
2019-04-03T08:19:54.363Z,10.78
2019-04-03T08:22:32.789Z,10.78
2019-04-03T08:25:11.000Z,10.78
2019-04-03T08:27:44.516Z,10.55
2019-04-03T08:30:22.307Z,10.48
2019-04-03T08:32:57.466Z,10.54
2019-04-03T08:35:35.107Z,10.47
2019-04-03T08:38:12.522Z,10.51
2019-04-03T08:40:46.195Z,10.36
2019-04-03T08:43:21.300Z,10.34
2019-04-03T08:45:56.581Z,10.47
2019-04-03T08:48:31.852Z,10.70
2019-04-03T08:51:07.427Z,10.97
2019-04-03T08:53:42.690Z,11.09
2019-04-03T08:56:17.985Z,11.22
2019-04-03T08:58:53.216Z,11.38
2019-04-03T09:01:28.296Z,11.53
2019-04-03T09:04:03.474Z,11.61
2019-04-03T09:06:38.507Z,11.74
2019-04-03T09:09:13.733Z,11.83
2019-04-03T09:11:49.056Z,11.87
2019-04-03T09:14:25.544Z,11.82
2019-04-03T09:17:02.696Z,11.78
2019-04-03T09:19:40.625Z,11.64
2019-04-03T09:22:14.384Z,11.50
2019-04-03T09:24:49.409Z,11.09
2019-04-03T09:27:24.447Z,11.16
2019-04-03T09:29:59.488Z,11.02
2019-04-03T09:32:36.988Z,11.09
2019-04-03T09:35:12.502Z,11.06
2019-04-03T09:37:47.835Z,11.06
2019-04-03T09:40:24.655Z,10.71
2019-04-03T09:43:00.761Z,11.02
2019-04-03T09:45:35.792Z,11.33
2019-04-03T09:48:12.303Z,11.49
2019-04-03T09:50:47.574Z,11.47
2019-04-03T09:53:23.965Z,11.37
2019-04-03T09:55:59.803Z,11.62
2019-04-03T09:58:36.266Z,11.69
2019-04-03T10:01:15.692Z,11.88
2019-04-03T10:03:48.661Z,12.06
2019-04-03T10:06:24.246Z,12.18
2019-04-03T10:08:59.876Z,12.33
2019-04-03T10:11:38.255Z,12.32
2019-04-03T10:14:12.863Z,11.87
2019-04-03T10:16:47.877Z,11.72
2019-04-03T10:19:23.023Z,11.84
2019-04-03T10:21:59.223Z,11.86
2019-04-03T10:24:34.856Z,11.81
2019-04-03T10:27:11.203Z,11.77
2019-04-03T10:29:49.148Z,11.74
2019-04-03T10:32:27.190Z,11.70
2019-04-03T10:35:00.654Z,11.73
2019-04-03T10:37:35.693Z,11.77
2019-04-03T10:40:24.972Z,11.71
2019-04-03T10:43:04.680Z,11.70
2019-04-03T10:45:38.441Z,11.80
2019-04-03T10:48:14.489Z,11.89
2019-04-03T10:50:49.530Z,11.62
2019-04-03T10:53:24.533Z,11.36
2019-04-03T10:56:00.574Z,11.42
2019-04-03T10:58:38.136Z,11.08
2019-04-03T11:01:15.907Z,11.06
2019-04-03T11:03:51.056Z,11.04
2019-04-03T11:06:27.050Z,11.09
2019-04-03T11:09:02.322Z,11.20
2019-04-03T11:11:39.015Z,11.24
2019-04-03T11:14:14.362Z,11.34
2019-04-03T11:16:49.373Z,10.98
2019-04-03T11:19:24.424Z,11.13
2019-04-03T11:21:59.689Z,11.06
2019-04-03T11:24:37.787Z,11.06
2019-04-03T11:27:12.379Z,11.16
2019-04-03T11:29:47.422Z,11.21
2019-04-03T11:32:23.400Z,11.35
2019-04-03T11:34:58.913Z,11.51
2019-04-03T11:37:34.317Z,11.48
2019-04-03T11:40:10.857Z,11.23
2019-04-03T11:42:46.033Z,10.93
2019-04-03T11:45:21.347Z,11.12
2019-04-03T11:47:56.799Z,11.16
2019-04-03T11:50:32.625Z,11.01
2019-04-03T11:53:07.827Z,10.92
2019-04-03T11:55:43.268Z,10.66
2019-04-03T11:58:20.179Z,10.59
2019-04-03T12:00:55.351Z,10.72
2019-04-03T12:03:30.439Z,10.88
2019-04-03T12:06:06.961Z,10.65
2019-04-03T12:08:44.572Z,10.60
2019-04-03T12:11:18.875Z,10.57
2019-04-03T12:13:54.008Z,10.45
2019-04-03T12:16:29.091Z,10.43
2019-04-03T12:19:05.768Z,10.13
2019-04-03T12:21:42.757Z,10.08
2019-04-03T12:24:18.305Z,10.28
2019-04-03T12:26:55.420Z,10.00
2019-04-03T12:29:30.979Z,10.04
2019-04-03T12:32:07.795Z,9.95
2019-04-03T12:34:42.989Z,10.03
2019-04-03T12:37:18.714Z,9.92
2019-04-03T12:39:54.444Z,9.99
2019-04-03T12:42:29.955Z,9.72
2019-04-03T12:45:09.725Z,9.53
2019-04-03T12:47:45.337Z,9.53
2019-04-03T12:50:20.567Z,9.27
2019-04-03T12:52:55.544Z,9.28
2019-04-03T12:55:30.526Z,9.37
2019-04-03T12:58:06.156Z,9.62
2019-04-03T13:00:41.319Z,9.68
2019-04-03T13:03:16.750Z,9.64
2019-04-03T13:05:51.870Z,9.73
2019-04-03T13:08:27.237Z,9.79
2019-04-03T13:11:02.684Z,9.89
2019-04-03T13:13:38.639Z,9.95
2019-04-03T13:16:15.018Z,10.07
2019-04-03T13:18:50.021Z,10.00
2019-04-03T13:21:25.085Z,10.10
2019-04-03T13:24:00.119Z,10.18
2019-04-03T13:26:35.213Z,9.96
2019-04-03T13:29:10.677Z,10.09
2019-04-03T13:31:47.057Z,10.11
2019-04-03T13:34:22.548Z,10.56
2019-04-03T13:36:59.082Z,10.54
2019-04-03T13:39:34.831Z,10.42
2019-04-03T13:42:12.709Z,10.41
2019-04-03T13:44:46.637Z,10.30
2019-04-03T13:47:21.768Z,10.04
2019-04-03T13:49:56.790Z,10.12
2019-04-03T13:52:40.261Z,10.21
2019-04-03T13:55:09.830Z,9.93
2019-04-03T13:57:44.991Z,10.07
2019-04-03T14:00:23.508Z,9.98
2019-04-03T14:02:58.546Z,10.05
2019-04-03T14:05:34.133Z,10.07
2019-04-03T14:08:12.208Z,10.08
2019-04-03T14:10:46.269Z,9.91
2019-04-03T14:13:21.699Z,10.00
2019-04-03T14:15:56.921Z,9.97
2019-04-03T14:18:32.170Z,9.98
2019-04-03T14:21:08.265Z,10.02
2019-04-03T14:23:44.228Z,10.04
2019-04-03T14:26:19.264Z,9.84
2019-04-03T14:28:54.627Z,9.86
2019-04-03T14:31:35.585Z,9.99
2019-04-03T14:34:06.585Z,9.94
2019-04-03T14:36:41.819Z,9.94
2019-04-03T14:39:17.165Z,10.02
2019-04-03T14:41:54.262Z,10.12
2019-04-03T14:44:29.246Z,10.15
2019-04-03T14:47:04.533Z,10.19
2019-04-03T14:49:39.522Z,10.20
2019-04-03T14:52:15.026Z,10.03
2019-04-03T14:54:51.647Z,10.14
2019-04-03T14:57:26.898Z,10.08
2019-04-03T15:00:05.084Z,10.10
2019-04-03T15:02:41.008Z,10.07
2019-04-03T15:05:18.664Z,10.14
2019-04-03T15:07:53.959Z,10.09
2019-04-03T15:10:30.690Z,9.92
2019-04-03T15:13:06.032Z,9.98
2019-04-03T15:15:42.777Z,9.97
2019-04-03T15:18:17.795Z,10.06
2019-04-03T15:20:53.283Z,9.95
2019-04-03T15:23:28.306Z,9.94
2019-04-03T15:26:03.522Z,9.86
2019-04-03T15:28:38.552Z,9.65
2019-04-03T15:31:14.937Z,9.59
2019-04-03T15:33:50.018Z,9.55
2019-04-03T15:36:25.474Z,9.57
2019-04-03T15:39:01.508Z,9.42
2019-04-03T15:41:38.246Z,9.47
2019-04-03T15:44:13.490Z,9.39
2019-04-03T15:46:49.667Z,9.50
2019-04-03T15:49:26.738Z,9.55
2019-04-03T15:52:01.725Z,9.51
2019-04-03T15:54:38.710Z,9.69
2019-04-03T15:57:14.365Z,9.71
2019-04-03T15:59:52.056Z,9.74
2019-04-03T16:02:28.459Z,9.67
2019-04-03T16:05:03.162Z,9.69
2019-04-03T16:07:41.439Z,9.59
2019-04-03T16:10:15.293Z,9.49
2019-04-03T16:12:50.362Z,9.70
2019-04-03T16:15:25.538Z,9.69
2019-04-03T16:18:00.543Z,9.75
2019-04-03T16:20:36.414Z,9.88
2019-04-03T16:23:11.633Z,10.00
2019-04-03T16:25:48.575Z,10.20
2019-04-03T16:28:23.639Z,10.26
2019-04-03T16:30:59.148Z,10.18
2019-04-03T16:33:35.802Z,10.08
2019-04-03T16:36:11.417Z,10.15
2019-04-03T16:38:46.920Z,10.14
2019-04-03T16:41:22.220Z,10.39
2019-04-03T16:43:57.258Z,10.36
2019-04-03T16:46:32.634Z,10.19
2019-04-03T16:49:07.938Z,10.20
2019-04-03T16:51:43.683Z,10.19
2019-04-03T16:54:18.944Z,10.08
2019-04-03T16:56:54.286Z,10.09
2019-04-03T16:59:29.355Z,9.99
2019-04-03T17:02:04.512Z,9.80
2019-04-03T17:04:39.892Z,9.73
2019-04-03T17:07:14.902Z,9.48
2019-04-03T17:09:50.108Z,9.60
2019-04-03T17:12:25.370Z,9.62
2019-04-03T17:15:00.535Z,9.72
2019-04-03T17:17:35.576Z,9.74
2019-04-03T17:20:11.588Z,9.87
2019-04-03T17:22:46.991Z,9.92
2019-04-03T17:25:26.887Z,9.87
2019-04-03T17:28:05.803Z,9.74
2019-04-03T17:30:37.300Z,9.74
2019-04-03T17:33:12.572Z,9.69
2019-04-03T17:35:49.618Z,9.69
2019-04-03T17:38:24.656Z,9.65
2019-04-03T17:40:59.696Z,9.63
2019-04-03T17:43:35.182Z,9.65
2019-04-03T17:46:10.218Z,9.56
2019-04-03T17:48:45.243Z,9.50
2019-04-03T17:51:20.992Z,9.51
2019-04-03T17:53:56.074Z,9.56
2019-04-03T17:56:31.071Z,9.59
2019-04-03T17:59:06.495Z,9.59
2019-04-03T18:01:41.772Z,9.44
2019-04-03T18:04:16.765Z,9.37
2019-04-03T18:06:52.589Z,9.43
2019-04-03T18:09:27.624Z,9.42
2019-04-03T18:12:02.845Z,9.33
2019-04-03T18:14:37.861Z,9.34
2019-04-03T18:17:12.950Z,9.24
2019-04-03T18:19:47.979Z,9.27
2019-04-03T18:22:23.159Z,9.19
2019-04-03T18:24:58.166Z,9.14
2019-04-03T18:27:34.101Z,9.15
2019-04-03T18:30:12.466Z,9.13
2019-04-03T18:32:47.822Z,9.17
2019-04-03T18:35:25.546Z,9.06
2019-04-03T18:37:59.863Z,9.06
2019-04-03T18:40:35.122Z,9.09
2019-04-03T18:43:10.112Z,9.08
2019-04-03T18:45:45.088Z,9.01
2019-04-03T18:48:20.100Z,8.99
2019-04-03T18:50:55.074Z,8.96
2019-04-03T18:53:30.071Z,8.93
2019-04-03T18:56:05.538Z,8.93
2019-04-03T18:58:43.963Z,8.84
2019-04-03T19:01:18.623Z,8.80
2019-04-03T19:03:54.744Z,8.72
2019-04-03T19:06:29.736Z,8.65
2019-04-03T19:09:10.049Z,8.70
2019-04-03T19:11:43.530Z,8.70
2019-04-03T19:14:27.035Z,8.69
2019-04-03T19:16:57.390Z,8.72
2019-04-03T19:19:32.762Z,8.61
2019-04-03T19:22:08.533Z,8.53
2019-04-03T19:24:43.761Z,8.55
2019-04-03T19:27:18.856Z,8.67
2019-04-03T19:29:54.062Z,8.82
2019-04-03T19:32:29.121Z,8.83
2019-04-03T19:35:04.281Z,8.81
2019-04-03T19:37:39.358Z,8.83
2019-04-03T19:40:14.853Z,8.92
2019-04-03T19:42:49.938Z,8.96
2019-04-03T19:45:25.010Z,9.03
2019-04-03T19:48:00.891Z,9.09
2019-04-03T19:50:36.008Z,9.08
2019-04-03T19:53:12.829Z,9.08
2019-04-03T19:55:47.852Z,9.08
2019-04-03T19:58:23.172Z,9.06
2019-04-03T20:00:58.255Z,9.16
2019-04-03T20:03:34.562Z,9.07
2019-04-03T20:06:09.571Z,9.12
2019-04-03T20:08:44.656Z,9.17
2019-04-03T20:11:19.948Z,8.99
2019-04-03T20:13:55.013Z,9.05
2019-04-03T20:16:30.618Z,9.19
2019-04-03T20:19:05.763Z,9.12
2019-04-03T20:21:40.768Z,9.06
2019-04-03T20:24:15.753Z,9.10
2019-04-03T20:26:50.805Z,9.12
2019-04-03T20:29:31.586Z,9.08
2019-04-03T20:32:07.145Z,8.92
2019-04-03T20:34:44.423Z,8.90
2019-04-03T20:37:19.806Z,8.88
2019-04-03T20:39:54.777Z,8.90
2019-04-03T20:42:29.787Z,8.98
2019-04-03T20:45:05.317Z,9.05
2019-04-03T20:47:40.367Z,8.90
2019-04-03T20:50:16.282Z,8.97
2019-04-03T20:52:52.132Z,8.84
2019-04-03T20:55:29.148Z,8.80
2019-04-03T20:58:06.620Z,8.88
2019-04-03T21:00:41.470Z,8.82
2019-04-03T21:03:16.458Z,8.62
2019-04-03T21:05:51.608Z,8.48
2019-04-03T21:08:27.190Z,8.53
2019-04-03T21:11:03.032Z,8.58
2019-04-03T21:13:40.200Z,8.63
2019-04-03T21:16:16.959Z,8.68
2019-04-03T21:18:53.594Z,8.73
2019-04-03T21:21:28.697Z,8.74
2019-04-03T21:24:04.575Z,8.77
2019-04-03T21:26:43.453Z,8.77
2019-04-03T21:29:20.123Z,8.83
2019-04-03T21:31:56.709Z,8.87
2019-04-03T21:34:32.813Z,8.89
2019-04-03T21:37:09.569Z,8.93
2019-04-03T21:39:45.058Z,8.92
2019-04-03T21:42:20.119Z,8.92
2019-04-03T21:44:55.085Z,8.91
2019-04-03T21:47:30.170Z,8.86
2019-04-03T21:50:06.093Z,8.95
2019-04-03T21:52:42.247Z,8.91
2019-04-03T21:55:17.944Z,8.89
2019-04-03T21:57:53.134Z,8.89
2019-04-03T22:01:20.979Z,8.73
2019-04-03T22:03:56.138Z,8.74
2019-04-03T22:06:31.411Z,8.71
2019-04-03T22:09:12.291Z,8.63
2019-04-03T22:11:47.556Z,8.71
2019-04-03T22:14:22.782Z,8.70
2019-04-03T22:16:57.878Z,8.75
2019-04-03T22:19:33.680Z,8.55
2019-04-03T22:22:08.796Z,8.56
2019-04-03T22:24:43.948Z,8.49
2019-04-03T22:27:19.019Z,8.54
2019-04-03T22:29:54.247Z,8.52
2019-04-03T22:32:29.303Z,8.53
2019-04-03T22:35:04.678Z,8.59
2019-04-03T22:37:40.065Z,8.64
2019-04-03T22:40:15.246Z,8.71
2019-04-03T22:42:51.565Z,8.68
2019-04-03T22:45:26.671Z,8.61
2019-04-03T22:48:01.952Z,8.58
2019-04-03T22:50:37.990Z,8.64
2019-04-03T22:53:13.263Z,8.60
2019-04-03T22:55:48.289Z,8.59
2019-04-03T22:58:23.552Z,8.56
2019-04-03T23:00:59.295Z,8.59
2019-04-03T23:03:35.057Z,8.53
2019-04-03T23:06:10.164Z,8.58
2019-04-03T23:08:45.350Z,8.53
2019-04-03T23:11:20.441Z,8.52
2019-04-03T23:13:55.652Z,8.52
2019-04-03T23:16:30.794Z,8.54
2019-04-03T23:19:05.965Z,8.50
2019-04-03T23:21:41.111Z,8.61
2019-04-03T23:24:16.247Z,8.62
2019-04-03T23:26:51.439Z,8.51
2019-04-03T23:29:26.571Z,8.54
2019-04-03T23:32:01.965Z,8.45
2019-04-03T23:34:37.494Z,8.43
2019-04-03T23:37:12.726Z,8.51
2019-04-03T23:39:47.900Z,8.46
2019-04-03T23:42:23.221Z,8.35
2019-04-03T23:44:58.403Z,8.38
2019-04-03T23:47:34.040Z,8.28
2019-04-03T23:50:09.221Z,8.34
2019-04-03T23:52:44.533Z,8.38
2019-04-03T23:55:19.639Z,8.40
2019-04-03T23:57:55.066Z,8.20
